createdAt,value
2019-06-26T00:00:29.687Z,7.10
2019-06-26T00:01:29.671Z,7.30
2019-06-26T00:02:29.658Z,7.50
2019-06-26T00:03:29.645Z,6.80
2019-06-26T00:04:29.644Z,7.50
2019-06-26T00:05:29.618Z,8.10
2019-06-26T00:06:29.609Z,8.00
2019-06-26T00:07:29.603Z,8.00
2019-06-26T00:08:29.586Z,7.90
2019-06-26T00:09:29.582Z,7.30
2019-06-26T00:10:29.555Z,7.80
2019-06-26T00:11:29.542Z,7.90
2019-06-26T00:12:29.527Z,7.70
2019-06-26T00:13:29.517Z,8.10
2019-06-26T00:14:29.537Z,8.60
2019-06-26T00:15:29.494Z,8.60
2019-06-26T00:16:29.477Z,8.90
2019-06-26T00:17:29.478Z,8.50
2019-06-26T00:18:29.451Z,8.40
2019-06-26T00:19:29.439Z,8.70
2019-06-26T00:20:29.440Z,7.90
2019-06-26T00:21:29.413Z,8.20
2019-06-26T00:22:29.400Z,7.60
2019-06-26T00:23:29.388Z,8.00
2019-06-26T00:24:29.377Z,7.60
2019-06-26T00:25:29.373Z,7.00
2019-06-26T00:26:29.348Z,7.20
2019-06-26T00:27:29.335Z,7.80
2019-06-26T00:28:29.322Z,7.60
2019-06-26T00:29:29.308Z,7.10
2019-06-26T00:30:29.310Z,6.80
2019-06-26T00:31:29.284Z,6.70
2019-06-26T00:32:29.271Z,7.00
2019-06-26T00:33:29.270Z,7.30
2019-06-26T00:34:29.243Z,7.20
2019-06-26T00:35:29.244Z,7.30
2019-06-26T00:36:29.217Z,7.40
2019-06-26T00:37:29.206Z,7.10
2019-06-26T00:38:29.193Z,7.20
2019-06-26T00:39:29.429Z,6.90
2019-06-26T00:40:29.202Z,6.90
2019-06-26T00:41:29.161Z,7.20
2019-06-26T00:42:29.140Z,7.80
2019-06-26T00:43:41.879Z,7.70
2019-06-26T00:44:29.116Z,7.60
2019-06-26T00:45:29.103Z,7.20
2019-06-26T00:46:29.100Z,7.20
2019-06-26T00:47:29.096Z,7.10
2019-06-26T00:48:29.076Z,7.30
2019-06-26T00:49:29.051Z,7.30
2019-06-26T00:50:29.036Z,6.90
2019-06-26T00:51:29.038Z,7.50
2019-06-26T00:52:29.009Z,6.80
2019-06-26T00:53:28.993Z,7.00
2019-06-26T00:54:28.984Z,7.20
2019-06-26T00:55:28.971Z,6.90
2019-06-26T00:56:28.974Z,6.90
2019-06-26T00:57:28.940Z,7.10
2019-06-26T00:58:28.926Z,6.70
2019-06-26T00:59:28.916Z,7.40
2019-06-26T01:00:29.067Z,6.90
2019-06-26T01:01:29.347Z,6.80
2019-06-26T01:02:28.877Z,7.40
2019-06-26T01:03:28.864Z,7.40
2019-06-26T01:04:28.849Z,6.70
2019-06-26T01:05:28.833Z,6.70
2019-06-26T01:06:28.822Z,7.00
2019-06-26T01:07:28.840Z,7.60
2019-06-26T01:08:28.796Z,7.10
2019-06-26T01:09:28.784Z,7.10
2019-06-26T01:10:28.801Z,7.00
2019-06-26T01:11:28.772Z,7.20
2019-06-26T01:12:28.756Z,7.40
2019-06-26T01:13:28.727Z,7.30
2019-06-26T01:14:28.717Z,7.70
2019-06-26T01:15:28.706Z,7.50
2019-06-26T01:16:28.687Z,7.50
2019-06-26T01:17:28.689Z,7.20
2019-06-26T01:18:28.660Z,8.10
2019-06-26T01:19:28.649Z,7.20
2019-06-26T01:20:28.637Z,7.20
2019-06-26T01:21:28.622Z,7.70
2019-06-26T01:22:28.628Z,7.70
2019-06-26T01:23:28.593Z,7.60
2019-06-26T01:24:28.579Z,7.90
2019-06-26T01:25:28.568Z,7.70
2019-06-26T01:26:28.553Z,7.70
2019-06-26T01:27:28.540Z,7.60
2019-06-26T01:28:28.539Z,7.90
2019-06-26T01:29:28.516Z,8.40
2019-06-26T01:30:28.499Z,8.20
2019-06-26T01:31:28.485Z,7.60
2019-06-26T01:32:28.473Z,7.70
2019-06-26T01:33:28.472Z,8.10
2019-06-26T01:34:28.446Z,8.10
2019-06-26T01:35:28.433Z,7.70
2019-06-26T01:36:28.418Z,8.00
2019-06-26T01:37:28.406Z,8.90
2019-06-26T01:38:28.428Z,7.60
2019-06-26T01:39:28.379Z,7.90
2019-06-26T01:40:28.363Z,8.50
2019-06-26T01:41:28.351Z,7.90
2019-06-26T01:42:28.340Z,8.80
2019-06-26T01:43:28.325Z,8.30
2019-06-26T01:44:28.322Z,8.40
2019-06-26T01:45:28.296Z,7.70
2019-06-26T01:46:28.302Z,8.10
2019-06-26T01:47:28.268Z,8.00
2019-06-26T01:48:28.256Z,8.30
2019-06-26T01:49:28.261Z,7.90
2019-06-26T01:50:28.228Z,8.00
2019-06-26T01:51:28.219Z,7.70
2019-06-26T01:52:28.202Z,7.40
2019-06-26T01:53:28.190Z,8.20
2019-06-26T01:54:28.197Z,8.20
2019-06-26T01:55:28.160Z,8.60
2019-06-26T01:56:28.146Z,8.00
2019-06-26T01:57:28.133Z,8.70
2019-06-26T01:58:28.124Z,9.30
2019-06-26T01:59:28.107Z,9.00
2019-06-26T02:00:28.107Z,8.60
2019-06-26T02:01:28.092Z,9.00
2019-06-26T02:02:28.067Z,9.30
2019-06-26T02:03:28.053Z,9.20
2019-06-26T02:04:28.038Z,8.80
2019-06-26T02:05:28.050Z,9.70
2019-06-26T02:06:28.013Z,9.40
2019-06-26T02:07:27.999Z,9.90
2019-06-26T02:08:27.984Z,9.60
2019-06-26T02:09:27.969Z,9.80
2019-06-26T02:10:27.978Z,9.90
2019-06-26T02:11:27.942Z,9.00
2019-06-26T02:12:27.928Z,9.40
2019-06-26T02:13:27.916Z,9.40
2019-06-26T02:14:31.541Z,9.70
2019-06-26T02:15:27.885Z,9.30
2019-06-26T02:16:27.873Z,9.50
2019-06-26T02:17:27.859Z,8.80
2019-06-26T02:18:27.844Z,9.60
2019-06-26T02:19:27.850Z,8.70
2019-06-26T02:20:27.817Z,9.30
2019-06-26T02:21:27.804Z,9.30
2019-06-26T02:22:27.793Z,9.70
2019-06-26T02:23:27.776Z,9.70
2019-06-26T02:24:27.763Z,9.30
2019-06-26T02:25:27.764Z,10.20
2019-06-26T02:26:27.741Z,9.60
2019-06-26T02:27:27.738Z,9.30
2019-06-26T02:28:27.705Z,9.30
2019-06-26T02:29:27.715Z,9.60
2019-06-26T02:30:27.711Z,9.60
2019-06-26T02:31:27.698Z,9.80
2019-06-26T02:32:27.653Z,9.80
2019-06-26T02:33:27.636Z,9.50
2019-06-26T02:34:27.625Z,9.70
2019-06-26T02:35:27.613Z,9.60
2019-06-26T02:36:27.620Z,9.80
2019-06-26T02:37:27.585Z,9.40
2019-06-26T02:38:27.576Z,9.50
2019-06-26T02:39:27.563Z,9.90
2019-06-26T02:40:27.547Z,9.70
2019-06-26T02:41:27.536Z,9.60
2019-06-26T02:42:27.535Z,9.70
2019-06-26T02:43:27.507Z,9.90
2019-06-26T02:44:27.487Z,9.70
2019-06-26T02:45:27.474Z,9.60
2019-06-26T02:46:27.462Z,9.60
2019-06-26T02:47:27.472Z,9.80
2019-06-26T02:48:27.439Z,9.40
2019-06-26T02:49:27.920Z,9.90
2019-06-26T02:50:27.404Z,12.90
2019-06-26T02:51:27.390Z,10.60
2019-06-26T02:52:27.384Z,10.40
2019-06-26T02:53:27.384Z,9.50
2019-06-26T02:54:27.354Z,9.70
2019-06-26T02:55:27.339Z,9.60
2019-06-26T02:56:27.319Z,9.90
2019-06-26T02:57:27.321Z,9.60
2019-06-26T02:58:27.296Z,9.50
2019-06-26T02:59:27.298Z,8.70
2019-06-26T03:00:27.262Z,9.20
2019-06-26T03:01:27.249Z,9.60
2019-06-26T03:02:27.238Z,9.50
2019-06-26T03:03:27.223Z,9.90
2019-06-26T03:04:27.210Z,9.90
2019-06-26T03:05:27.219Z,9.60
2019-06-26T03:06:27.178Z,9.20
2019-06-26T03:07:27.168Z,9.70
2019-06-26T03:08:27.151Z,9.40
2019-06-26T03:09:27.138Z,10.00
2019-06-26T03:10:27.124Z,9.80
2019-06-26T03:11:27.133Z,8.90
2019-06-26T03:12:27.094Z,9.50
2019-06-26T03:13:27.082Z,9.60
2019-06-26T03:14:27.071Z,10.10
2019-06-26T03:15:27.052Z,9.70
2019-06-26T03:16:27.042Z,9.70
2019-06-26T03:17:27.050Z,9.90
2019-06-26T03:18:27.011Z,9.80
2019-06-26T03:19:26.998Z,8.90
2019-06-26T03:20:26.986Z,10.20
2019-06-26T03:21:26.970Z,10.20
2019-06-26T03:22:26.955Z,10.30
2019-06-26T03:23:26.960Z,10.70
2019-06-26T03:24:26.930Z,9.90
2019-06-26T03:25:26.912Z,10.30
2019-06-26T03:26:26.901Z,10.60
2019-06-26T03:27:26.886Z,10.20
2019-06-26T03:28:26.895Z,9.90
2019-06-26T03:29:26.859Z,10.90
2019-06-26T03:30:26.842Z,10.20
2019-06-26T03:31:26.838Z,10.40
2019-06-26T03:32:26.815Z,10.90
2019-06-26T03:33:26.800Z,10.50
2019-06-26T03:34:26.809Z,10.00
2019-06-26T03:35:26.774Z,10.00
2019-06-26T03:36:26.758Z,11.00
2019-06-26T03:37:26.744Z,10.90
2019-06-26T03:38:26.730Z,10.60
2019-06-26T03:39:26.718Z,11.30
2019-06-26T03:40:26.758Z,11.10
2019-06-26T03:41:26.687Z,11.10
2019-06-26T03:42:26.677Z,10.90
2019-06-26T03:43:26.660Z,11.20
2019-06-26T03:44:26.646Z,11.40
2019-06-26T03:45:26.710Z,10.90
2019-06-26T03:46:26.617Z,10.60
2019-06-26T03:47:26.605Z,11.10
2019-06-26T03:48:26.592Z,11.20
2019-06-26T03:49:26.601Z,11.40
2019-06-26T03:50:26.561Z,11.30
2019-06-26T03:51:26.573Z,10.60
2019-06-26T03:52:26.540Z,11.00
2019-06-26T03:53:26.519Z,10.80
2019-06-26T03:54:26.505Z,11.20
2019-06-26T03:55:26.492Z,10.90
2019-06-26T03:56:26.481Z,11.40
2019-06-26T03:57:26.490Z,11.80
2019-06-26T03:58:26.450Z,11.30
2019-06-26T03:59:26.435Z,11.00
2019-06-26T04:00:26.419Z,11.40
2019-06-26T04:01:26.408Z,11.70
2019-06-26T04:02:26.393Z,10.70
2019-06-26T04:03:26.403Z,11.70
2019-06-26T04:04:26.371Z,11.50
2019-06-26T04:05:26.349Z,10.80
2019-06-26T04:06:26.337Z,11.80
2019-06-26T04:07:26.324Z,11.40
2019-06-26T04:08:26.307Z,11.60
2019-06-26T04:09:26.313Z,11.40
2019-06-26T04:10:26.304Z,11.50
2019-06-26T04:11:26.266Z,11.50
2019-06-26T04:12:26.254Z,11.20
2019-06-26T04:13:26.239Z,11.90
2019-06-26T04:14:26.223Z,11.60
2019-06-26T04:15:40.920Z,11.60
2019-06-26T04:16:26.198Z,11.50
2019-06-26T04:17:26.187Z,11.30
2019-06-26T04:18:26.171Z,11.30
2019-06-26T04:19:26.154Z,11.20
2019-06-26T04:20:26.144Z,11.60
2019-06-26T04:21:26.147Z,11.60
2019-06-26T04:22:26.110Z,11.50
2019-06-26T04:23:26.101Z,11.40
2019-06-26T04:24:26.084Z,12.30
2019-06-26T04:25:26.071Z,11.80
2019-06-26T04:26:26.057Z,12.20
2019-06-26T04:27:26.062Z,12.20
2019-06-26T04:28:26.051Z,12.40
2019-06-26T04:29:26.014Z,12.60
2019-06-26T04:30:26.001Z,11.70
2019-06-26T04:31:25.986Z,11.40
2019-06-26T04:32:25.970Z,11.70
2019-06-26T04:33:26.000Z,10.90
2019-06-26T04:34:25.943Z,11.10
2019-06-26T04:35:25.931Z,11.30
2019-06-26T04:36:25.916Z,10.90
2019-06-26T04:37:25.901Z,10.70
2019-06-26T04:38:25.887Z,11.20
2019-06-26T04:39:25.905Z,11.40
2019-06-26T04:40:25.862Z,10.80
2019-06-26T04:41:25.850Z,10.50
2019-06-26T04:42:25.837Z,11.10
2019-06-26T04:43:25.822Z,10.40
2019-06-26T04:44:25.805Z,10.80
2019-06-26T04:45:25.817Z,11.60
2019-06-26T04:46:25.786Z,11.20
2019-06-26T04:47:25.770Z,12.50
2019-06-26T04:48:25.749Z,12.90
2019-06-26T04:49:25.735Z,11.60
2019-06-26T04:50:25.728Z,11.40
2019-06-26T04:51:25.724Z,11.00
2019-06-26T04:52:25.694Z,11.00
2019-06-26T04:53:25.679Z,10.00
2019-06-26T04:54:25.666Z,11.00
2019-06-26T04:55:25.655Z,11.20
2019-06-26T04:56:25.659Z,10.90
2019-06-26T04:57:25.645Z,11.20
2019-06-26T04:58:25.683Z,11.30
2019-06-26T04:59:25.603Z,10.80
2019-06-26T05:00:25.583Z,12.20
2019-06-26T05:01:25.571Z,11.90
2019-06-26T05:02:25.577Z,11.10
2019-06-26T05:03:25.542Z,11.30
2019-06-26T05:04:25.534Z,11.30
2019-06-26T05:05:38.634Z,11.20
2019-06-26T05:06:25.502Z,11.40
2019-06-26T05:07:25.496Z,11.50
2019-06-26T05:08:25.500Z,11.50
2019-06-26T05:09:25.460Z,11.90
2019-06-26T05:10:25.464Z,11.90
2019-06-26T05:11:25.440Z,11.70
2019-06-26T05:12:25.547Z,12.00
2019-06-26T05:13:25.408Z,13.00
2019-06-26T05:14:25.426Z,11.10
2019-06-26T05:15:25.382Z,12.10
2019-06-26T05:16:25.368Z,12.10
2019-06-26T05:17:25.355Z,12.00
2019-06-26T05:18:25.507Z,12.10
2019-06-26T05:19:25.340Z,12.40
2019-06-26T05:20:25.337Z,12.00
2019-06-26T05:21:25.299Z,13.20
2019-06-26T05:22:25.331Z,12.50
2019-06-26T05:23:25.273Z,13.30
2019-06-26T05:24:25.275Z,12.70
2019-06-26T05:25:25.257Z,13.10
2019-06-26T05:26:25.258Z,13.00
2019-06-26T05:27:25.220Z,16.80
2019-06-26T05:28:25.205Z,17.70
2019-06-26T05:29:25.191Z,15.10
2019-06-26T05:30:25.206Z,18.50
2019-06-26T05:31:25.165Z,18.20
2019-06-26T05:32:25.177Z,18.50
2019-06-26T05:33:25.138Z,17.10
2019-06-26T05:34:25.124Z,18.40
2019-06-26T05:35:25.117Z,18.70
2019-06-26T05:36:25.100Z,18.30
2019-06-26T05:37:25.085Z,17.50
2019-06-26T05:38:25.095Z,20.30
2019-06-26T05:39:25.058Z,19.30
2019-06-26T05:40:25.047Z,17.90
2019-06-26T05:41:25.034Z,18.50
2019-06-26T05:42:25.023Z,18.10
2019-06-26T05:43:25.011Z,17.80
2019-06-26T05:44:25.077Z,18.40
2019-06-26T05:45:24.982Z,18.90
2019-06-26T05:46:31.058Z,18.50
2019-06-26T05:47:24.961Z,17.80
2019-06-26T05:48:24.940Z,19.40
2019-06-26T05:49:24.930Z,19.70
2019-06-26T05:50:24.936Z,21.70
2019-06-26T05:51:24.934Z,21.90
2019-06-26T05:52:24.891Z,21.30
2019-06-26T05:53:24.879Z,20.40
2019-06-26T05:54:24.877Z,19.00
2019-06-26T05:55:24.853Z,18.90
2019-06-26T05:56:24.860Z,19.30
2019-06-26T05:57:24.827Z,26.00
2019-06-26T05:58:24.814Z,22.20
2019-06-26T05:59:24.802Z,27.20
2019-06-26T06:00:24.793Z,25.20
2019-06-26T06:01:24.794Z,26.20
2019-06-26T06:02:24.789Z,24.70
2019-06-26T06:03:24.753Z,24.10
2019-06-26T06:04:24.741Z,28.50
2019-06-26T06:05:24.730Z,28.20
2019-06-26T06:06:40.336Z,32.00
2019-06-26T06:07:24.705Z,29.40
2019-06-26T06:08:24.724Z,29.60
2019-06-26T06:09:24.688Z,30.40
2019-06-26T06:10:24.669Z,31.20
2019-06-26T06:11:24.655Z,32.10
2019-06-26T06:12:24.651Z,33.80
2019-06-26T06:13:24.632Z,32.60
2019-06-26T06:14:24.640Z,34.20
2019-06-26T06:15:24.608Z,34.70
2019-06-26T06:46:10.645Z,23.40
2019-06-26T06:47:10.609Z,29.60
2019-06-26T06:48:10.599Z,27.90
2019-06-26T06:49:10.589Z,28.60
2019-06-26T06:50:10.580Z,26.50
2019-06-26T06:51:10.558Z,29.00
2019-06-26T06:52:10.569Z,28.00
2019-06-26T06:53:10.543Z,28.40
2019-06-26T06:54:10.521Z,27.60
2019-06-26T06:55:10.510Z,25.20
2019-06-26T06:56:10.497Z,26.40
2019-06-26T06:57:10.484Z,27.00
2019-06-26T06:58:10.489Z,25.80
2019-06-26T06:59:10.464Z,24.30
2019-06-26T07:00:10.454Z,25.20
2019-06-26T07:01:17.474Z,26.20
2019-06-26T07:02:10.429Z,24.50
2019-06-26T07:03:10.436Z,25.90
2019-06-26T07:04:10.409Z,23.50
2019-06-26T07:05:10.394Z,24.50
2019-06-26T07:06:10.383Z,23.50
2019-06-26T07:07:10.375Z,23.90
2019-06-26T07:08:10.363Z,25.40
2019-06-26T07:09:10.375Z,24.80
2019-06-26T07:10:10.343Z,25.00
2019-06-26T07:11:10.329Z,25.90
2019-06-26T07:12:10.321Z,24.20
2019-06-26T07:13:10.309Z,24.40
2019-06-26T07:14:10.321Z,24.30
2019-06-26T07:15:10.321Z,23.90
2019-06-26T07:16:10.278Z,23.80
2019-06-26T07:17:19.964Z,22.40
2019-06-26T07:18:10.261Z,23.00
2019-06-26T07:19:10.247Z,24.70
2019-06-26T07:20:10.256Z,23.80
2019-06-26T07:21:10.228Z,22.30
2019-06-26T07:22:10.220Z,23.90
2019-06-26T07:23:10.207Z,23.90
2019-06-26T07:24:10.196Z,24.00
2019-06-26T07:25:10.187Z,22.40
2019-06-26T07:26:13.228Z,23.10
2019-06-26T07:27:10.171Z,24.00
2019-06-26T07:28:10.191Z,22.90
2019-06-26T07:29:10.153Z,23.00
2019-06-26T07:30:10.138Z,23.80
2019-06-26T07:31:10.126Z,25.70
2019-06-26T07:32:10.143Z,26.40
2019-06-26T07:33:10.108Z,24.00
2019-06-26T08:11:10.314Z,16.30
2019-06-26T08:12:10.285Z,19.20
2019-06-26T08:13:10.272Z,20.50
2019-06-26T08:14:10.263Z,19.40
2019-06-26T08:15:10.268Z,19.90
2019-06-26T08:16:10.237Z,19.80
2019-06-26T08:17:10.230Z,20.80
2019-06-26T08:18:10.222Z,20.20
2019-06-26T08:19:10.216Z,21.10
2019-06-26T08:20:10.209Z,17.90
2019-06-26T08:21:12.629Z,20.00
2019-06-26T08:22:10.176Z,18.70
2019-06-26T08:23:10.157Z,16.10
2019-06-26T08:24:10.159Z,18.80
2019-06-26T08:25:10.142Z,18.10
2019-06-26T08:26:17.182Z,18.50
2019-06-26T08:27:13.004Z,17.50
2019-06-26T08:28:10.107Z,19.50
2019-06-26T08:29:10.107Z,18.00
2019-06-26T08:30:10.096Z,17.40
2019-06-26T08:31:10.100Z,17.90
2019-06-26T08:32:10.092Z,19.00
2019-06-26T08:33:10.057Z,19.70
2019-06-26T08:34:10.044Z,20.20
2019-06-26T08:35:10.036Z,19.20
2019-06-26T08:36:10.023Z,17.10
2019-06-26T08:37:10.014Z,17.50
2019-06-26T08:38:15.152Z,17.20
2019-06-26T08:39:09.995Z,18.70
2019-06-26T08:40:10.001Z,17.00
2019-06-26T08:41:09.979Z,18.50
2019-06-26T09:04:01.034Z,15.60
2019-06-26T09:05:00.997Z,16.90
2019-06-26T09:06:00.988Z,19.10
2019-06-26T09:07:00.978Z,17.70
2019-06-26T09:08:00.998Z,15.70
2019-06-26T09:09:00.958Z,15.80
2019-06-26T09:10:00.980Z,17.50
2019-06-26T09:11:00.971Z,16.50
2019-06-26T09:12:00.921Z,16.40
2019-06-26T09:13:00.908Z,15.40
2019-06-26T09:14:00.901Z,15.70
2019-06-26T09:15:00.887Z,16.10
2019-06-26T09:16:00.901Z,16.50
2019-06-26T09:17:00.869Z,16.10
2019-06-26T09:18:00.857Z,16.50
2019-06-26T09:19:00.847Z,17.20
2019-06-26T09:20:00.835Z,14.90
2019-06-26T09:21:00.826Z,15.20
2019-06-26T09:22:00.843Z,16.60
2019-06-26T09:23:00.808Z,15.00
2019-06-26T09:24:00.799Z,14.70
2019-06-26T09:25:00.791Z,14.90
2019-06-26T09:26:00.780Z,14.40
2019-06-26T09:27:00.770Z,15.40
2019-06-26T09:28:00.791Z,15.40
2019-06-26T09:29:00.749Z,14.10
2019-06-26T09:30:00.741Z,14.60
2019-06-26T09:31:00.736Z,15.40
2019-06-26T09:32:00.724Z,14.70
2019-06-26T09:33:00.714Z,14.80
2019-06-26T09:34:00.729Z,14.60
2019-06-26T09:35:00.696Z,15.60
2019-06-26T09:36:00.690Z,13.90
2019-06-26T09:37:00.678Z,13.80
2019-06-26T09:38:00.669Z,14.00
2019-06-26T09:39:00.679Z,14.80
2019-06-26T09:52:03.399Z,12.30
2019-06-26T09:53:05.328Z,13.20
2019-06-26T09:54:03.460Z,13.70
2019-06-26T09:55:03.331Z,13.40
2019-06-26T09:56:03.317Z,12.80
2019-06-26T09:57:03.309Z,12.60
2019-06-26T09:58:03.342Z,12.20
2019-06-26T09:59:03.289Z,12.30
2019-06-26T10:00:03.327Z,11.90
2019-06-26T10:01:03.268Z,13.20
2019-06-26T10:02:03.263Z,12.40
2019-06-26T10:03:03.254Z,13.10
2019-06-26T10:04:03.294Z,12.50
2019-06-26T10:05:03.228Z,12.20
2019-06-26T10:06:03.219Z,12.60
2019-06-26T10:07:03.215Z,12.40
2019-06-26T10:08:03.440Z,13.80
2019-06-26T10:09:03.194Z,14.30
2019-06-26T10:10:03.214Z,14.10
2019-06-26T10:11:03.177Z,12.70
2019-06-26T10:12:03.168Z,13.10
2019-06-26T10:13:03.158Z,11.90
2019-06-26T10:14:03.153Z,14.00
2019-06-26T10:15:03.149Z,13.60
2019-06-26T10:16:03.159Z,12.80
2019-06-26T10:17:03.120Z,13.10
2019-06-26T10:18:03.115Z,12.10
2019-06-26T10:19:10.167Z,13.20
2019-06-26T10:20:03.279Z,12.60
2019-06-26T10:21:03.094Z,13.00
2019-06-26T10:22:03.107Z,12.20
2019-06-26T10:23:03.077Z,12.10
2019-06-26T10:24:03.088Z,12.20
2019-06-26T10:25:03.078Z,11.90
2019-06-26T10:26:03.050Z,11.60
2019-06-26T10:27:03.083Z,12.20
2019-06-26T10:28:03.056Z,11.70
2019-06-26T10:29:03.019Z,12.50
2019-06-26T10:30:03.024Z,11.90
2019-06-26T10:31:03.010Z,11.20
2019-06-26T10:32:02.998Z,12.20
2019-06-26T10:33:03.012Z,12.00
2019-06-26T10:34:02.991Z,11.20
2019-06-26T10:35:02.971Z,12.00
2019-06-26T10:36:02.975Z,11.80
2019-06-26T10:37:02.970Z,11.30
2019-06-26T10:38:02.944Z,11.90
2019-06-26T10:39:02.945Z,12.00
2019-06-26T10:40:02.931Z,11.70
2019-06-26T10:41:02.940Z,10.90
2019-06-26T10:42:02.912Z,10.90
2019-06-26T10:43:02.911Z,11.10
2019-06-26T10:44:02.932Z,11.30
2019-06-26T10:45:02.887Z,11.70
2019-06-26T10:46:02.894Z,12.40
2019-06-26T10:47:02.875Z,12.10
2019-06-26T10:48:02.866Z,11.40
2019-06-26T10:49:02.866Z,10.60
2019-06-26T10:50:02.898Z,10.60
2019-06-26T10:51:02.942Z,11.00
2019-06-26T10:52:02.831Z,9.70
2019-06-26T10:53:02.840Z,10.10
2019-06-26T10:54:02.819Z,10.90
2019-06-26T10:55:02.809Z,11.30
2019-06-26T10:56:02.835Z,10.40
2019-06-26T10:57:02.813Z,9.90
2019-06-26T10:58:02.784Z,10.10
2019-06-26T10:59:02.775Z,9.50
2019-06-26T11:00:02.771Z,9.10
2019-06-26T11:01:02.771Z,8.30
2019-06-26T11:02:02.769Z,7.70
2019-06-26T11:03:02.744Z,8.90
2019-06-26T11:04:02.736Z,8.60
2019-06-26T11:05:02.789Z,9.60
2019-06-26T11:06:02.719Z,9.60
2019-06-26T11:07:02.767Z,9.20
2019-06-26T11:08:02.721Z,9.50
2019-06-26T11:09:02.696Z,9.30
2019-06-26T11:10:02.729Z,9.00
2019-06-26T11:11:02.692Z,8.90
2019-06-26T11:12:02.709Z,9.00
2019-06-26T11:13:02.687Z,9.50
2019-06-26T11:14:02.696Z,8.90
2019-06-26T11:15:02.654Z,8.70
2019-06-26T11:16:02.649Z,8.10
2019-06-26T11:17:02.634Z,7.80
2019-06-26T11:18:02.641Z,7.40
2019-06-26T11:19:02.623Z,7.10
2019-06-26T11:20:02.611Z,8.30
2019-06-26T11:21:02.601Z,8.40
2019-06-26T11:22:02.598Z,8.60
2019-06-26T11:23:02.608Z,8.90
2019-06-26T11:24:02.580Z,7.90
2019-06-26T11:25:02.571Z,7.70
2019-06-26T11:26:02.632Z,8.40
2019-06-26T11:27:02.556Z,8.80
2019-06-26T11:28:02.570Z,9.00
2019-06-26T11:29:02.545Z,7.90
2019-06-26T11:30:02.536Z,7.40
2019-06-26T11:31:02.545Z,8.20
2019-06-26T11:32:02.573Z,9.00
2019-06-26T11:33:02.603Z,9.00
2019-06-26T11:34:02.506Z,8.90
2019-06-26T11:35:02.642Z,8.00
2019-06-26T11:36:02.492Z,7.80
2019-06-26T11:37:04.339Z,8.40
2019-06-26T11:38:02.564Z,8.90
2019-06-26T11:39:02.495Z,8.30
2019-06-26T11:40:02.500Z,8.60
2019-06-26T11:41:02.452Z,7.60
2019-06-26T11:42:02.447Z,7.90
2019-06-26T11:43:02.464Z,6.70
2019-06-26T11:44:02.431Z,6.70
2019-06-26T11:45:02.421Z,7.20
2019-06-26T11:46:02.415Z,7.40
2019-06-26T11:47:02.410Z,8.10
2019-06-26T11:48:02.405Z,7.80
2019-06-26T11:49:02.408Z,7.50
2019-06-26T11:50:02.386Z,7.20
2019-06-26T11:51:02.379Z,8.00
2019-06-26T11:52:02.377Z,8.00
2019-06-26T11:53:02.366Z,7.70
2019-06-26T11:54:02.376Z,8.40
2019-06-26T11:55:03.656Z,9.70
2019-06-26T11:56:02.344Z,8.00
2019-06-26T11:57:02.335Z,8.50
2019-06-26T11:58:02.463Z,7.90
2019-06-26T11:59:02.345Z,7.90
2019-06-26T12:00:02.316Z,7.60
2019-06-26T12:01:02.306Z,8.00
2019-06-26T12:02:02.300Z,7.40
2019-06-26T12:03:02.329Z,8.30
2019-06-26T12:04:02.326Z,8.30
2019-06-26T12:05:02.278Z,8.70
2019-06-26T12:06:17.750Z,7.70
2019-06-26T12:07:02.266Z,8.10
2019-06-26T12:08:02.260Z,7.90
2019-06-26T12:09:02.250Z,8.10
2019-06-26T12:10:02.376Z,7.70
2019-06-26T12:11:02.246Z,7.00
2019-06-26T12:12:02.239Z,6.90
2019-06-26T12:13:04.211Z,7.00
2019-06-26T12:14:02.215Z,7.00
2019-06-26T12:15:02.242Z,6.30
2019-06-26T12:16:02.364Z,6.50
2019-06-26T12:17:02.200Z,6.20
2019-06-26T12:18:02.224Z,6.10
2019-06-26T12:19:02.179Z,6.50
2019-06-26T12:20:16.985Z,6.70
2019-06-26T12:21:02.181Z,6.80
2019-06-26T12:22:02.163Z,6.70
2019-06-26T12:23:02.156Z,6.80
2019-06-26T12:24:02.194Z,6.70
2019-06-26T12:25:02.246Z,6.70
2019-06-26T12:26:02.143Z,7.50
2019-06-26T12:27:02.126Z,7.30
2019-06-26T12:28:02.177Z,7.50
2019-06-26T12:29:02.258Z,7.40
2019-06-26T12:30:02.115Z,7.10
2019-06-26T12:31:02.109Z,7.30
2019-06-26T12:32:02.169Z,6.90
2019-06-26T12:33:03.786Z,7.00
2019-06-26T12:34:02.258Z,7.10
2019-06-26T12:35:02.084Z,6.60
2019-06-26T12:36:02.085Z,6.60
2019-06-26T12:37:02.070Z,6.60
2019-06-26T12:38:02.124Z,6.50
2019-06-26T12:39:02.046Z,6.70
2019-06-26T12:40:02.073Z,6.70
2019-06-26T12:41:02.033Z,6.90
2019-06-26T12:42:02.035Z,6.20
2019-06-26T12:43:02.014Z,6.90
2019-06-26T12:44:02.010Z,7.00
2019-06-26T12:45:02.006Z,6.50
2019-06-26T12:46:01.994Z,7.10
2019-06-26T12:47:02.002Z,6.90
2019-06-26T12:48:01.990Z,6.90
2019-06-26T12:49:01.974Z,6.60
2019-06-26T12:50:02.056Z,7.20
2019-06-26T12:51:01.959Z,6.60
2019-06-26T12:52:02.002Z,6.80
2019-06-26T12:53:01.957Z,6.60
2019-06-26T12:54:01.949Z,6.40
2019-06-26T12:55:02.001Z,6.90
2019-06-26T12:56:01.937Z,7.00
2019-06-26T12:57:01.926Z,6.40
2019-06-26T12:58:12.333Z,6.70
2019-06-26T12:59:01.941Z,6.70
2019-06-26T13:00:02.345Z,6.80
2019-06-26T13:01:01.938Z,7.00
2019-06-26T13:02:01.890Z,6.80
2019-06-26T13:03:01.898Z,6.80
2019-06-26T13:04:01.882Z,7.10
2019-06-26T13:05:01.885Z,6.50
2019-06-26T13:06:01.864Z,7.40
2019-06-26T13:07:01.912Z,7.50
2019-06-26T13:08:01.870Z,7.00
2019-06-26T13:09:01.848Z,7.20
2019-06-26T13:10:02.117Z,6.90
2019-06-26T13:11:01.836Z,7.30
2019-06-26T13:12:01.833Z,7.20
2019-06-26T13:13:01.842Z,7.10
2019-06-26T13:14:03.195Z,6.80
2019-06-26T13:15:01.816Z,7.10
2019-06-26T13:16:01.810Z,7.40
2019-06-26T13:17:01.805Z,7.40
2019-06-26T13:18:01.826Z,7.50
2019-06-26T13:19:01.853Z,7.40
2019-06-26T13:20:01.822Z,7.60
2019-06-26T13:21:05.038Z,7.80
2019-06-26T13:22:01.836Z,7.70
2019-06-26T13:23:01.793Z,7.70
2019-06-26T13:24:01.766Z,7.50
2019-06-26T13:25:01.787Z,7.90
2019-06-26T13:26:01.757Z,8.30
2019-06-26T13:27:01.753Z,8.70
2019-06-26T13:28:01.748Z,8.20
2019-06-26T13:29:01.742Z,8.70
2019-06-26T13:30:01.748Z,8.60
2019-06-26T13:31:01.775Z,8.30
2019-06-26T13:32:01.726Z,8.70
2019-06-26T13:33:01.724Z,8.10
2019-06-26T13:34:01.716Z,9.00
2019-06-26T13:35:01.821Z,8.30
2019-06-26T13:36:01.710Z,8.10
2019-06-26T13:37:01.702Z,8.80
2019-06-26T13:38:01.696Z,8.80
2019-06-26T13:39:01.733Z,8.90
2019-06-26T13:40:01.695Z,8.90
2019-06-26T13:41:01.698Z,8.70
2019-06-26T13:42:01.680Z,8.60
2019-06-26T13:43:01.681Z,7.80
2019-06-26T13:44:01.677Z,8.50
2019-06-26T13:45:01.667Z,8.30
2019-06-26T13:46:01.691Z,7.90
2019-06-26T13:47:01.664Z,7.60
2019-06-26T13:48:01.658Z,7.60
2019-06-26T13:49:01.654Z,7.80
2019-06-26T13:50:01.648Z,8.10
2019-06-26T13:51:09.178Z,7.50
2019-06-26T13:52:01.666Z,8.10
2019-06-26T13:53:01.639Z,8.20
2019-06-26T13:54:01.637Z,8.20
2019-06-26T13:55:01.636Z,8.20
2019-06-26T13:56:01.642Z,7.80
2019-06-26T13:57:01.661Z,7.90
2019-06-26T13:58:01.623Z,7.80
2019-06-26T13:59:01.619Z,7.50
2019-06-26T14:00:01.622Z,7.80
2019-06-26T14:01:01.629Z,7.70
2019-06-26T14:02:01.611Z,7.80
2019-06-26T14:03:01.626Z,7.40
2019-06-26T14:04:01.603Z,7.50
2019-06-26T14:05:01.618Z,7.60
2019-06-26T14:06:01.596Z,7.50
2019-06-26T14:07:01.618Z,7.70
2019-06-26T14:08:01.607Z,8.20
2019-06-26T14:09:01.589Z,8.00
2019-06-26T14:10:01.682Z,7.50
2019-06-26T14:11:01.583Z,8.50
2019-06-26T14:12:01.579Z,9.00
2019-06-26T14:13:01.590Z,8.60
2019-06-26T14:14:01.590Z,8.30
2019-06-26T14:15:01.582Z,8.00
2019-06-26T14:16:01.574Z,7.70
2019-06-26T14:17:01.715Z,8.40
2019-06-26T14:18:01.563Z,8.20
2019-06-26T14:19:01.575Z,8.30
2019-06-26T14:20:01.605Z,8.20
2019-06-26T14:21:01.557Z,7.80
2019-06-26T14:22:01.616Z,8.10
2019-06-26T14:23:01.557Z,7.90
2019-06-26T14:24:01.596Z,8.90
2019-06-26T14:25:01.551Z,7.90
2019-06-26T14:26:01.546Z,8.30
2019-06-26T14:27:01.546Z,8.10
2019-06-26T14:28:01.547Z,8.50
2019-06-26T14:29:01.541Z,8.00
2019-06-26T14:30:01.552Z,8.70
2019-06-26T14:31:01.537Z,7.80
2019-06-26T14:32:01.536Z,8.20
2019-06-26T14:33:01.540Z,7.80
2019-06-26T14:34:01.533Z,8.30
2019-06-26T14:35:01.549Z,7.60
2019-06-26T14:36:01.552Z,7.60
2019-06-26T14:37:01.524Z,8.00
2019-06-26T14:38:01.525Z,7.90
2019-06-26T14:39:01.525Z,7.40
2019-06-26T14:40:01.521Z,8.10
2019-06-26T14:41:01.537Z,7.40
2019-06-26T14:42:01.575Z,7.70
2019-06-26T14:43:01.540Z,7.90
2019-06-26T14:44:01.560Z,8.50
2019-06-26T14:45:01.516Z,7.90
2019-06-26T14:46:01.610Z,7.90
2019-06-26T14:47:01.525Z,7.70